createdAt,value
2018-08-03T00:01:33.737Z,59.10
2018-08-03T00:04:01.892Z,59.20
2018-08-03T00:06:30.020Z,59.10
2018-08-03T00:08:58.101Z,59.20
2018-08-03T00:11:26.239Z,59.20
2018-08-03T00:13:54.381Z,59.30
2018-08-03T00:18:50.488Z,59.40
2018-08-03T00:21:18.588Z,59.50
2018-08-03T00:23:46.691Z,59.50
2018-08-03T00:26:14.838Z,59.60
2018-08-03T00:28:42.927Z,59.90
2018-08-03T00:31:11.051Z,59.90
2018-08-03T00:33:39.231Z,60.00
2018-08-03T00:36:07.311Z,60.20
2018-08-03T00:38:36.406Z,60.40
2018-08-03T00:41:04.536Z,60.50
2018-08-03T00:43:32.685Z,60.60
2018-08-03T00:46:00.816Z,60.60
2018-08-03T00:48:28.960Z,60.80
2018-08-03T00:50:57.076Z,60.90
2018-08-03T00:53:25.167Z,61.10
2018-08-03T00:55:53.293Z,61.30
2018-08-03T00:58:21.395Z,61.50
2018-08-03T01:00:49.556Z,61.60
2018-08-03T01:03:17.711Z,61.90
2018-08-03T01:05:45.849Z,61.90
2018-08-03T01:08:13.972Z,62.10
2018-08-03T01:10:42.231Z,62.30
2018-08-03T01:13:10.363Z,62.50
2018-08-03T01:15:38.499Z,62.60
2018-08-03T01:18:06.648Z,62.70
2018-08-03T01:20:34.763Z,62.90
2018-08-03T01:23:02.867Z,63.00
2018-08-03T01:25:31.031Z,63.20
2018-08-03T01:27:59.143Z,63.30
2018-08-03T01:30:27.252Z,63.30
2018-08-03T01:32:55.397Z,63.40
2018-08-03T01:35:23.520Z,63.40
2018-08-03T01:37:51.796Z,63.40
2018-08-03T01:40:19.936Z,63.40
2018-08-03T01:42:48.099Z,63.50
2018-08-03T01:47:44.217Z,63.50
2018-08-03T01:50:12.344Z,63.50
2018-08-03T01:52:40.476Z,63.60
2018-08-03T01:55:08.606Z,63.80
2018-08-03T01:57:36.732Z,63.80
2018-08-03T02:00:05.214Z,63.70
2018-08-03T02:02:33.350Z,63.80
2018-08-03T02:05:02.025Z,64.10
2018-08-03T02:07:30.124Z,64.10
2018-08-03T02:09:58.263Z,64.30
2018-08-03T02:12:26.367Z,64.30
2018-08-03T02:14:54.495Z,64.50
2018-08-03T02:17:22.617Z,64.60
2018-08-03T02:19:50.823Z,64.60
2018-08-03T02:22:18.940Z,64.60
2018-08-03T02:24:47.060Z,64.60
2018-08-03T02:27:15.200Z,64.90
2018-08-03T02:29:43.379Z,64.80
2018-08-03T02:32:11.519Z,65.00
2018-08-03T02:34:39.636Z,65.00
2018-08-03T02:37:07.820Z,65.00
2018-08-03T02:39:35.935Z,65.00
2018-08-03T02:42:04.113Z,65.30
2018-08-03T02:44:32.257Z,65.60
2018-08-03T02:47:00.338Z,65.90
2018-08-03T02:49:28.469Z,66.20
2018-08-03T02:51:56.610Z,66.20
2018-08-03T02:54:24.681Z,66.40
2018-08-03T02:56:52.771Z,66.50
2018-08-03T02:59:20.892Z,66.50
2018-08-03T03:01:49.016Z,66.70
2018-08-03T03:04:17.134Z,66.70
2018-08-03T03:06:45.270Z,66.70
2018-08-03T03:09:13.397Z,66.80
2018-08-03T03:11:41.552Z,66.90
2018-08-03T03:14:09.695Z,67.70
2018-08-03T03:16:37.836Z,67.10
2018-08-03T03:19:05.939Z,67.10
2018-08-03T03:21:34.085Z,67.20
2018-08-03T03:24:02.232Z,67.60
2018-08-03T03:26:30.381Z,68.10
2018-08-03T03:28:58.632Z,68.50
2018-08-03T03:31:26.736Z,68.80
2018-08-03T03:33:54.909Z,69.00
2018-08-03T03:36:23.001Z,69.20
2018-08-03T03:38:51.135Z,69.50
2018-08-03T03:41:19.276Z,69.80
2018-08-03T03:43:47.467Z,70.10
2018-08-03T03:46:15.593Z,70.10
2018-08-03T03:51:11.695Z,70.30
2018-08-03T03:53:39.828Z,69.60
2018-08-03T03:56:07.940Z,69.30
2018-08-03T03:58:36.088Z,69.40
2018-08-03T04:01:04.214Z,69.40
2018-08-03T04:03:32.360Z,69.30
2018-08-03T04:06:00.564Z,69.30
2018-08-03T04:08:28.670Z,69.40
2018-08-03T04:10:56.872Z,69.40
2018-08-03T04:13:24.985Z,69.70
2018-08-03T04:15:53.184Z,69.80
2018-08-03T04:18:22.003Z,69.90
2018-08-03T04:20:51.244Z,70.00
2018-08-03T04:23:19.604Z,70.10
2018-08-03T04:25:47.716Z,70.30
2018-08-03T04:28:15.850Z,70.40
2018-08-03T04:30:43.979Z,70.60
2018-08-03T04:33:12.727Z,70.70
2018-08-03T04:35:41.014Z,71.00
2018-08-03T04:38:09.447Z,71.20
2018-08-03T04:40:37.595Z,71.50
2018-08-03T04:43:05.733Z,71.60
2018-08-03T04:45:33.844Z,71.70
2018-08-03T04:48:02.000Z,72.80
2018-08-03T04:50:30.117Z,72.10
2018-08-03T04:52:58.256Z,72.30
2018-08-03T04:55:26.360Z,72.50
2018-08-03T04:57:54.551Z,72.60
2018-08-03T05:00:22.680Z,72.60
2018-08-03T05:02:50.800Z,72.70
2018-08-03T05:05:18.893Z,72.80
2018-08-03T05:07:47.000Z,72.80
2018-08-03T05:10:15.143Z,73.00
2018-08-03T05:12:43.257Z,72.90
2018-08-03T05:15:11.347Z,73.10
2018-08-03T05:17:39.476Z,73.20
2018-08-03T05:20:08.100Z,73.40
2018-08-03T05:22:36.212Z,73.50
2018-08-03T05:25:04.627Z,73.40
2018-08-03T05:27:32.938Z,73.50
2018-08-03T05:30:01.151Z,73.40
2018-08-03T05:32:29.368Z,73.40
2018-08-03T05:34:57.505Z,74.10
2018-08-03T05:37:25.595Z,73.30
2018-08-03T05:39:53.731Z,73.20
2018-08-03T05:42:21.939Z,73.30
2018-08-03T05:44:50.072Z,72.80
2018-08-03T05:47:18.241Z,72.60
2018-08-03T05:49:46.463Z,72.70
2018-08-03T05:52:15.939Z,72.50
2018-08-03T05:54:44.109Z,72.30
2018-08-03T05:57:12.208Z,72.70
2018-08-03T05:59:40.369Z,71.90
2018-08-03T06:02:08.532Z,71.60
2018-08-03T06:04:36.731Z,71.40
2018-08-03T06:07:04.824Z,71.50
2018-08-03T06:09:33.191Z,71.50
2018-08-03T06:12:01.363Z,72.10
2018-08-03T06:14:29.479Z,70.90
2018-08-03T06:16:57.603Z,70.80
2018-08-03T06:19:25.777Z,71.00
2018-08-03T06:21:53.896Z,70.30
2018-08-03T06:24:22.055Z,70.20
2018-08-03T06:26:50.144Z,69.70
2018-08-03T06:29:18.274Z,69.50
2018-08-03T06:31:46.486Z,69.90
2018-08-03T06:34:14.704Z,69.60
2018-08-03T06:36:42.881Z,69.30
2018-08-03T06:39:11.587Z,69.20
2018-08-03T06:41:39.741Z,69.20
2018-08-03T06:44:07.932Z,69.00
2018-08-03T06:46:36.076Z,69.10
2018-08-03T06:49:04.249Z,68.40
2018-08-03T06:51:32.425Z,68.40
2018-08-03T06:54:00.549Z,68.80
2018-08-03T06:56:28.921Z,68.40
2018-08-03T06:58:57.105Z,68.00
2018-08-03T07:03:53.334Z,67.40
2018-08-03T07:06:21.512Z,66.90
2018-08-03T07:08:49.610Z,67.40
2018-08-03T07:11:17.736Z,66.60
2018-08-03T07:13:45.867Z,65.90
2018-08-03T07:16:14.073Z,65.70
2018-08-03T07:18:42.184Z,65.30
2018-08-03T07:21:10.484Z,65.10
2018-08-03T07:23:38.588Z,63.80
2018-08-03T07:26:06.713Z,63.90
2018-08-03T07:28:34.795Z,62.90
2018-08-03T07:31:02.937Z,62.40
2018-08-03T07:33:31.088Z,62.40
2018-08-03T07:38:27.582Z,60.10
2018-08-03T07:40:55.905Z,59.20
2018-08-03T07:43:24.110Z,57.70
2018-08-03T07:45:52.134Z,57.00
2018-08-03T07:48:20.283Z,55.40
2018-08-03T07:50:48.391Z,54.60
2018-08-03T07:53:16.495Z,53.10
2018-08-03T07:55:44.618Z,52.70
2018-08-03T07:58:12.752Z,51.70
2018-08-03T08:00:40.864Z,50.80
2018-08-03T08:03:09.109Z,50.20
2018-08-03T08:05:37.280Z,48.80
2018-08-03T08:08:05.383Z,47.60
2018-08-03T08:10:33.512Z,46.00
2018-08-03T08:13:01.612Z,45.80
2018-08-03T08:15:29.788Z,46.00
2018-08-03T08:17:57.968Z,46.40
2018-08-03T08:20:26.076Z,46.30
2018-08-03T08:22:54.224Z,45.60
2018-08-03T08:25:22.376Z,45.30
2018-08-03T08:27:50.529Z,45.40
2018-08-03T08:30:18.849Z,45.80
2018-08-03T08:32:47.016Z,45.40
2018-08-03T08:35:15.175Z,45.60
2018-08-03T08:37:43.300Z,45.00
2018-08-03T08:40:11.476Z,46.10
2018-08-03T08:42:39.666Z,45.20
2018-08-03T08:45:07.784Z,45.50
2018-08-03T08:47:35.960Z,45.00
2018-08-03T08:50:05.376Z,44.90
2018-08-03T08:52:33.624Z,44.00
2018-08-03T08:55:01.784Z,44.90
2018-08-03T08:57:29.933Z,44.50
2018-08-03T08:59:58.130Z,43.80
2018-08-03T09:02:26.356Z,43.70
2018-08-03T09:04:54.505Z,44.10
2018-08-03T09:09:50.802Z,43.40
2018-08-03T09:12:18.998Z,43.50
2018-08-03T09:14:47.133Z,43.20
2018-08-03T09:19:43.198Z,41.70
2018-08-03T09:22:11.420Z,41.90
2018-08-03T09:24:39.569Z,42.20
2018-08-03T09:27:07.673Z,41.70
2018-08-03T09:29:35.842Z,41.50
2018-08-03T09:32:04.071Z,41.60
2018-08-03T09:34:32.252Z,41.00
2018-08-03T09:37:00.522Z,41.20
2018-08-03T09:39:28.696Z,41.00
2018-08-03T09:41:56.837Z,41.30
2018-08-03T09:44:24.955Z,42.00
2018-08-03T09:46:53.111Z,41.00
2018-08-03T09:49:21.230Z,40.40
2018-08-03T09:51:49.393Z,39.60
2018-08-03T09:56:45.547Z,40.00
2018-08-03T09:59:13.689Z,39.90
2018-08-03T10:01:41.784Z,40.40
2018-08-03T10:04:09.921Z,39.20
2018-08-03T10:06:38.073Z,38.90
2018-08-03T10:09:07.059Z,39.10
2018-08-03T10:11:35.196Z,39.70
2018-08-03T10:14:03.336Z,38.70
2018-08-03T10:16:31.500Z,38.40
2018-08-03T10:18:59.647Z,38.10
2018-08-03T10:21:27.816Z,38.30
2018-08-03T10:23:55.987Z,39.10
2018-08-03T10:26:24.097Z,38.40
2018-08-03T10:28:52.388Z,38.70
2018-08-03T10:31:20.500Z,39.00
2018-08-03T10:33:48.661Z,38.10
2018-08-03T10:36:16.821Z,38.00
2018-08-03T10:38:44.935Z,37.60
2018-08-03T10:41:13.117Z,37.80
2018-08-03T10:43:41.186Z,36.70
2018-08-03T10:46:09.324Z,36.60
2018-08-03T10:48:37.447Z,36.10
2018-08-03T10:53:33.488Z,35.80
2018-08-03T10:56:01.621Z,36.30
2018-08-03T10:58:29.700Z,37.70
2018-08-03T11:00:57.819Z,37.60
2018-08-03T11:03:25.965Z,35.60
2018-08-03T11:05:54.057Z,35.70
2018-08-03T11:08:22.172Z,35.80
2018-08-03T11:10:50.312Z,34.90
2018-08-03T11:13:18.403Z,34.60
2018-08-03T11:15:46.544Z,35.10
2018-08-03T11:18:14.655Z,35.20
2018-08-03T11:20:42.801Z,35.30
2018-08-03T11:23:10.920Z,35.60
2018-08-03T11:25:39.080Z,36.30
2018-08-03T11:28:07.189Z,36.90
2018-08-03T11:30:35.283Z,37.00
2018-08-03T11:33:03.407Z,36.70
2018-08-03T11:35:31.541Z,37.10
2018-08-03T11:37:59.695Z,37.50
2018-08-03T11:40:27.809Z,38.70
2018-08-03T11:42:55.939Z,38.10
2018-08-03T11:56:44.432Z,38.10
2018-08-03T11:59:12.535Z,38.00
2018-08-03T12:01:40.670Z,38.60
2018-08-03T12:04:08.771Z,39.20
2018-08-03T12:06:37.522Z,41.00
2018-08-03T12:09:06.220Z,41.50
2018-08-03T12:11:34.314Z,42.10
2018-08-03T12:14:02.446Z,41.80
2018-08-03T12:16:30.531Z,41.50
2018-08-03T12:18:58.659Z,40.80
2018-08-03T12:21:26.763Z,40.30
2018-08-03T12:23:54.916Z,39.60
2018-08-03T12:26:22.957Z,39.20
2018-08-03T12:28:51.042Z,39.20
2018-08-03T12:31:19.197Z,38.70
2018-08-03T12:33:47.267Z,38.30
2018-08-03T12:36:15.387Z,38.20
2018-08-03T12:38:43.505Z,38.50
2018-08-03T12:41:11.599Z,39.20
2018-08-03T12:43:39.715Z,39.30
2018-08-03T12:46:07.815Z,38.30
2018-08-03T12:48:36.923Z,38.20
2018-08-03T12:51:05.072Z,38.30
2018-08-03T12:53:33.224Z,38.50
2018-08-03T12:56:01.319Z,38.40
2018-08-03T12:58:29.532Z,38.20
2018-08-03T13:00:57.645Z,38.70
2018-08-03T13:03:25.740Z,38.60
2018-08-03T13:05:53.851Z,38.50
2018-08-03T13:08:22.108Z,39.00
2018-08-03T13:10:50.044Z,38.60
2018-08-03T13:13:19.258Z,38.30
2018-08-03T13:15:47.347Z,38.60
2018-08-03T13:18:15.476Z,38.70
2018-08-03T13:20:43.604Z,38.90
2018-08-03T13:23:11.702Z,38.70
2018-08-03T13:25:39.823Z,39.00
2018-08-03T13:28:07.997Z,39.40
2018-08-03T13:30:36.108Z,39.40
2018-08-03T13:33:04.283Z,40.40
2018-08-03T13:40:28.131Z,40.00
2018-08-03T13:42:56.266Z,39.90
2018-08-03T13:45:24.367Z,40.20
2018-08-03T13:47:52.506Z,40.50
2018-08-03T13:50:20.668Z,40.80
2018-08-03T13:52:48.739Z,41.10
2018-08-03T13:55:16.870Z,41.00
2018-08-03T13:57:45.095Z,41.10
2018-08-03T14:00:13.806Z,41.10
2018-08-03T14:02:42.180Z,41.40
2018-08-03T14:05:10.518Z,41.50
2018-08-03T14:07:38.687Z,41.60
2018-08-03T14:10:07.480Z,41.70
2018-08-03T14:12:35.614Z,42.50
2018-08-03T14:15:03.744Z,41.90
2018-08-03T14:17:31.847Z,41.80
2018-08-03T14:19:59.941Z,42.30
2018-08-03T14:22:28.091Z,43.50
2018-08-03T14:24:56.253Z,44.00
2018-08-03T14:27:24.382Z,44.60
2018-08-03T14:29:52.562Z,44.60
2018-08-03T14:32:20.712Z,44.50
2018-08-03T14:34:48.842Z,43.90
2018-08-03T14:37:16.999Z,43.50
2018-08-03T14:39:45.107Z,43.20
2018-08-03T14:42:13.227Z,43.10
2018-08-03T14:44:41.328Z,42.90
2018-08-03T14:47:09.471Z,42.80
2018-08-03T14:49:37.572Z,42.70
2018-08-03T14:52:06.104Z,42.70
2018-08-03T14:54:34.259Z,42.50
2018-08-03T14:57:02.383Z,42.50
2018-08-03T14:59:30.479Z,42.30
2018-08-03T15:01:58.620Z,42.90
2018-08-03T15:04:26.731Z,42.10
2018-08-03T15:06:54.896Z,42.00
2018-08-03T15:09:23.039Z,42.00
2018-08-03T15:11:51.148Z,42.10
2018-08-03T15:14:19.324Z,41.90
2018-08-03T15:16:47.454Z,41.60
2018-08-03T15:19:15.588Z,41.60
2018-08-03T15:21:43.714Z,41.60
2018-08-03T15:24:11.844Z,41.40
2018-08-03T15:26:40.004Z,41.70
2018-08-03T15:29:08.211Z,41.60
2018-08-03T15:31:36.320Z,41.50
2018-08-03T15:34:04.443Z,41.10
2018-08-03T15:36:32.570Z,41.50
2018-08-03T15:39:00.699Z,41.70
2018-08-03T15:41:28.816Z,42.30
2018-08-03T15:43:56.920Z,42.60
2018-08-03T15:46:25.053Z,43.20
2018-08-03T15:48:53.311Z,43.30
2018-08-03T15:51:21.432Z,43.30
2018-08-03T15:53:49.570Z,43.50
2018-08-03T15:56:17.732Z,43.40
2018-08-03T15:58:45.921Z,43.40
2018-08-03T16:01:13.966Z,43.60
2018-08-03T16:03:42.107Z,43.80
2018-08-03T16:06:10.251Z,43.90
2018-08-03T16:08:38.388Z,43.80
2018-08-03T16:11:13.434Z,44.00
2018-08-03T16:13:41.702Z,44.10
2018-08-03T16:16:09.847Z,43.70
2018-08-03T16:18:37.987Z,43.70
2018-08-03T16:21:06.098Z,43.70
2018-08-03T16:23:34.215Z,43.80
2018-08-03T16:26:02.354Z,43.60
2018-08-03T16:28:30.500Z,43.60
2018-08-03T16:30:58.715Z,43.60
2018-08-03T16:33:26.825Z,43.70
2018-08-03T16:35:55.184Z,43.50
2018-08-03T16:38:23.323Z,43.20
2018-08-03T16:40:51.416Z,43.10
2018-08-03T16:43:19.559Z,43.20
2018-08-03T16:45:47.678Z,43.20
2018-08-03T16:48:15.824Z,43.10
2018-08-03T16:50:43.944Z,43.60
2018-08-03T16:53:12.073Z,43.60
2018-08-03T16:55:40.195Z,43.30
2018-08-03T16:58:08.343Z,42.30
2018-08-03T17:00:36.440Z,42.30
2018-08-03T17:03:04.554Z,42.30
2018-08-03T17:05:32.672Z,42.20
2018-08-03T17:08:00.821Z,41.80
2018-08-03T17:10:28.967Z,41.30
2018-08-03T17:12:57.019Z,41.40
2018-08-03T17:15:25.162Z,41.40
2018-08-03T17:17:53.275Z,41.00
2018-08-03T17:20:21.486Z,40.80
2018-08-03T17:22:49.519Z,40.40
2018-08-03T17:25:17.627Z,40.30
2018-08-03T17:27:45.743Z,40.10
2018-08-03T17:30:13.971Z,40.00
2018-08-03T17:32:42.091Z,40.00
2018-08-03T17:35:10.178Z,39.90
2018-08-03T17:37:38.532Z,39.90
2018-08-03T17:40:06.642Z,39.50
2018-08-03T17:42:34.815Z,39.40
2018-08-03T17:45:02.849Z,39.20
2018-08-03T17:47:30.957Z,38.90
2018-08-03T17:49:59.041Z,38.70
2018-08-03T17:52:27.155Z,38.70
2018-08-03T17:54:55.300Z,38.20
2018-08-03T17:57:23.543Z,37.30
2018-08-03T17:59:51.846Z,36.70
2018-08-03T18:02:19.971Z,36.30
2018-08-03T18:04:48.146Z,36.40
2018-08-03T18:07:16.235Z,36.20
2018-08-03T18:09:44.352Z,35.50
2018-08-03T18:12:12.436Z,35.00
2018-08-03T18:14:40.631Z,34.60
2018-08-03T18:17:08.803Z,34.20
2018-08-03T18:19:36.927Z,33.60
2018-08-03T18:22:05.060Z,33.50
2018-08-03T18:24:33.225Z,33.30
2018-08-03T18:27:01.363Z,33.30
2018-08-03T18:29:29.474Z,33.10
2018-08-03T18:31:57.598Z,33.30
2018-08-03T18:34:25.805Z,33.50
2018-08-03T18:36:54.000Z,33.80
2018-08-03T18:39:22.023Z,33.80
2018-08-03T18:41:50.130Z,33.40
2018-08-03T18:44:18.215Z,33.50
2018-08-03T18:46:46.350Z,33.40
2018-08-03T18:49:14.479Z,33.60
2018-08-03T18:51:42.607Z,34.00
2018-08-03T18:54:10.700Z,34.30
2018-08-03T18:56:38.919Z,34.60
2018-08-03T18:59:07.414Z,34.80
2018-08-03T19:01:35.574Z,35.10
2018-08-03T19:06:31.611Z,35.40
2018-08-03T19:08:59.751Z,35.50
2018-08-03T19:11:27.875Z,35.80
2018-08-03T19:13:56.031Z,37.00
2018-08-03T19:16:24.199Z,40.00
2018-08-03T19:18:52.437Z,40.70
2018-08-03T19:21:21.104Z,41.70
2018-08-03T19:23:49.216Z,42.90
2018-08-03T19:26:17.314Z,43.40
2018-08-03T19:28:45.399Z,43.70
2018-08-03T19:31:14.320Z,44.30
2018-08-03T19:33:42.432Z,44.70
2018-08-03T19:36:10.562Z,45.10
2018-08-03T19:38:38.630Z,45.30
2018-08-03T19:41:06.690Z,45.40
2018-08-03T19:43:34.796Z,45.70
2018-08-03T19:46:02.892Z,45.60
2018-08-03T19:48:31.013Z,45.80
2018-08-03T19:50:59.143Z,45.90
2018-08-03T19:53:27.311Z,46.00
2018-08-03T19:55:55.435Z,46.20
2018-08-03T19:58:23.586Z,46.20
2018-08-03T20:00:51.881Z,46.40
2018-08-03T20:03:20.004Z,46.70
2018-08-03T20:05:48.123Z,46.80
2018-08-03T20:10:44.212Z,47.10
2018-08-03T20:13:12.386Z,47.20
2018-08-03T20:15:40.483Z,47.00
2018-08-03T20:18:08.551Z,47.50
2018-08-03T20:20:36.685Z,47.10
2018-08-03T20:23:04.800Z,47.30
2018-08-03T20:25:32.918Z,47.50
2018-08-03T20:28:01.040Z,47.60
2018-08-03T20:30:29.224Z,47.80
2018-08-03T20:32:57.287Z,47.90
2018-08-03T20:35:25.388Z,48.20
2018-08-03T20:37:53.508Z,48.20
2018-08-03T20:42:49.849Z,48.90
2018-08-03T20:45:18.219Z,48.30
2018-08-03T20:47:46.316Z,48.50
2018-08-03T20:50:15.113Z,48.50
2018-08-03T20:52:43.242Z,48.60
2018-08-03T20:55:11.384Z,48.80
2018-08-03T20:57:39.520Z,48.80
2018-08-03T21:00:07.631Z,49.00
2018-08-03T21:02:36.417Z,49.20
2018-08-03T21:05:04.559Z,49.20
2018-08-03T21:07:32.660Z,49.40
2018-08-03T21:10:00.787Z,49.40
2018-08-03T21:12:29.060Z,49.50
2018-08-03T21:14:57.175Z,49.60
2018-08-03T21:17:25.297Z,49.70
2018-08-03T21:19:53.963Z,49.70
2018-08-03T21:22:22.102Z,49.90
2018-08-03T21:24:50.259Z,50.00
2018-08-03T21:27:19.219Z,49.90
2018-08-03T21:32:15.333Z,49.40
2018-08-03T21:34:43.444Z,49.90
2018-08-03T21:37:11.607Z,50.20
2018-08-03T21:39:39.699Z,50.00
2018-08-03T21:42:07.867Z,50.50
2018-08-03T21:44:36.043Z,50.50
2018-08-03T21:47:05.314Z,50.40
2018-08-03T21:49:34.506Z,50.70
2018-08-03T21:52:02.847Z,50.90
2018-08-03T21:54:30.971Z,51.10
2018-08-03T21:56:59.118Z,51.30
2018-08-03T21:59:27.877Z,51.10
2018-08-03T22:01:56.046Z,51.20
2018-08-03T22:04:24.132Z,51.60
2018-08-03T22:06:52.567Z,51.60
2018-08-03T22:09:21.235Z,51.90
2018-08-03T22:14:17.863Z,52.90
2018-08-03T22:16:46.269Z,52.70
2018-08-03T22:21:42.450Z,53.50
2018-08-03T22:24:10.580Z,53.60
2018-08-03T22:26:38.695Z,53.60
2018-08-03T22:31:34.717Z,53.70
2018-08-03T22:34:02.843Z,54.00
2018-08-03T22:36:30.935Z,54.20
2018-08-03T22:38:59.623Z,54.30
2018-08-03T22:41:27.690Z,54.70
2018-08-03T22:43:55.782Z,55.00
2018-08-03T22:46:23.902Z,55.30
2018-08-03T22:51:19.998Z,56.10
2018-08-03T22:53:48.099Z,56.50
2018-08-03T22:56:16.263Z,56.90
2018-08-03T22:58:44.482Z,57.30
2018-08-03T23:01:12.614Z,57.70
2018-08-03T23:03:40.822Z,58.00
2018-08-03T23:06:08.913Z,58.40
2018-08-03T23:08:37.009Z,58.80
2018-08-03T23:11:05.139Z,59.10
2018-08-03T23:13:33.339Z,59.40
2018-08-03T23:16:01.443Z,59.60
2018-08-03T23:18:29.656Z,59.90
2018-08-03T23:20:57.839Z,60.30
2018-08-03T23:23:26.003Z,60.70
2018-08-03T23:25:54.285Z,61.10
2018-08-03T23:28:22.467Z,61.70
2018-08-03T23:30:50.744Z,62.10
2018-08-03T23:33:18.893Z,63.10
2018-08-03T23:35:47.015Z,63.90
2018-08-03T23:38:15.165Z,64.30
2018-08-03T23:40:43.311Z,64.50
2018-08-03T23:43:11.459Z,64.90
2018-08-03T23:45:39.571Z,65.40
2018-08-03T23:48:07.740Z,66.00
2018-08-03T23:50:35.850Z,66.60
2018-08-03T23:53:04.047Z,66.80
2018-08-03T23:55:32.204Z,67.20
2018-08-03T23:58:00.323Z,67.70
